sensor_id;sensor_type;location;lat;lon;timestamp;pressure;altitude;pressure_sealevel;temperature;humidity
16431;BME280;8325;49.284;7.238;2023-02-03T05:01:06;100041.63;;;6.19;100.00
16431;BME280;8325;49.284;7.238;2023-02-03T05:05:18;100031.69;;;6.13;100.00
16431;BME280;8325;49.284;7.238;2023-02-03T05:09:30;100047.13;;;6.15;100.00
16431;BME280;8325;49.284;7.238;2023-02-03T05:13:41;100034.16;;;6.15;100.00
16431;BME280;8325;49.284;7.238;2023-02-03T05:17:53;100029.06;;;6.13;100.00
16431;BME280;8325;49.284;7.238;2023-02-03T05:22:05;100043.09;;;6.11;100.00
16431;BME280;8325;49.284;7.238;2023-02-03T05:26:16;100021.56;;;6.21;100.00
16431;BME280;8325;49.284;7.238;2023-02-03T05:30:28;100028.34;;;6.11;100.00
16431;BME280;8325;49.284;7.238;2023-02-03T05:34:40;100012.28;;;6.06;100.00
16431;BME280;8325;49.284;7.238;2023-02-03T05:38:52;100015.94;;;6.04;100.00
16431;BME280;8325;49.284;7.238;2023-02-03T05:43:04;100022.78;;;6.05;100.00
16431;BME280;8325;49.284;7.238;2023-02-03T05:47:16;100005.81;;;6.12;100.00
16431;BME280;8325;49.284;7.238;2023-02-03T05:51:27;100000.97;;;6.07;100.00
16431;BME280;8325;49.284;7.238;2023-02-03T05:55:39;100015.16;;;6.14;100.00
16431;BME280;8325;49.284;7.238;2023-02-03T05:59:51;100006.03;;;6.09;100.00
16431;BME280;8325;49.284;7.238;2023-02-03T06:04:03;100009.47;;;6.09;100.00
16431;BME280;8325;49.284;7.238;2023-02-03T06:08:15;100015.88;;;6.16;100.00
16431;BME280;8325;49.284;7.238;2023-02-03T06:12:27;100014.44;;;6.12;100.00
16431;BME280;8325;49.284;7.238;2023-02-03T06:16:39;100005.81;;;6.12;100.00
16431;BME280;8325;49.284;7.238;2023-02-03T06:20:51;100024.19;;;6.09;100.00
16431;BME280;8325;49.284;7.238;2023-02-03T06:25:03;100026.19;;;6.05;100.00
16431;BME280;8325;49.284;7.238;2023-02-03T06:29:15;100014.78;;;6.08;100.00
16431;BME280;8325;49.284;7.238;2023-02-03T06:33:26;100023.81;;;6.02;100.00
16431;BME280;8325;49.284;7.238;2023-02-03T06:37:38;100023.81;;;6.02;100.00
16431;BME280;8325;49.284;7.238;2023-02-03T06:41:50;100022.66;;;6.06;100.00
16431;BME280;8325;49.284;7.238;2023-02-03T06:46:06;100019.34;;;6.04;100.00
16431;BME280;8325;49.284;7.238;2023-02-03T06:50:17;100016.09;;;6.13;100.00
16431;BME280;8325;49.284;7.238;2023-02-03T06:54:29;100018.91;;;6.10;100.00
16431;BME280;8325;49.284;7.238;2023-02-03T06:58:40;100015.94;;;6.04;100.00
16431;BME280;8325;49.284;7.238;2023-02-03T07:02:53;100015.50;;;6.10;100.00
16431;BME280;8325;49.284;7.238;2023-02-03T07:07:05;99992.69;;;6.02;100.00
16431;BME280;8325;49.284;7.238;2023-02-03T07:11:17;99994.84;;;6.08;100.00
16431;BME280;8325;49.284;7.238;2023-02-03T07:15:28;99987.63;;;6.01;100.00
16431;BME280;8325;49.284;7.238;2023-02-03T07:19:40;99992.47;;;6.05;100.00
16431;BME280;8325;49.284;7.238;2023-02-03T07:23:52;100015.94;;;6.04;100.00
16431;BME280;8325;49.284;7.238;2023-02-03T07:28:04;100025.25;;;6.06;100.00
16431;BME280;8325;49.284;7.238;2023-02-03T07:32:15;100035.41;;;6.09;100.00
16431;BME280;8325;49.284;7.238;2023-02-03T07:36:27;100036.25;;;6.10;100.00
16431;BME280;8325;49.284;7.238;2023-02-03T07:40:39;100044.47;;;6.04;100.00
16431;BME280;8325;49.284;7.238;2023-02-03T07:44:50;100056.16;;;6.09;100.00
16431;BME280;8325;49.284;7.238;2023-02-03T07:49:02;100068.00;;;6.13;100.00
16431;BME280;8325;49.284;7.238;2023-02-03T07:53:16;100061.13;;;6.12;100.00
16431;BME280;8325;49.284;7.238;2023-02-03T07:57:27;100078.16;;;6.16;100.00
16431;BME280;8325;49.284;7.238;2023-02-03T08:01:39;100098.09;;;6.16;100.00
16431;BME280;8325;49.284;7.238;2023-02-03T08:05:51;100103.88;;;6.19;100.00
16431;BME280;8325;49.284;7.238;2023-02-03T08:10:05;100099.09;;;6.26;100.00
16431;BME280;8325;49.284;7.238;2023-02-03T08:14:17;100106.97;;;6.25;100.00
16431;BME280;8325;49.284;7.238;2023-02-03T08:18:29;100106.97;;;6.25;100.00
16431;BME280;8325;49.284;7.238;2023-02-03T08:22:43;100075.81;;;6.25;100.00
16431;BME280;8325;49.284;7.238;2023-02-03T08:26:55;100092.84;;;6.29;100.00
16431;BME280;8325;49.284;7.238;2023-02-03T08:31:10;100081.44;;;6.31;100.00
16431;BME280;8325;49.284;7.238;2023-02-03T08:35:23;100078.72;;;6.33;100.00
16431;BME280;8325;49.284;7.238;2023-02-03T08:39:34;100080.59;;;6.31;100.00
16431;BME280;8325;49.284;7.238;2023-02-03T08:43:46;100075.06;;;6.35;100.00
16431;BME280;8325;49.284;7.238;2023-02-03T08:47:57;100063.75;;;6.36;100.00
16431;BME280;8325;49.284;7.238;2023-02-03T08:52:11;100081.59;;;6.41;100.00
16431;BME280;8325;49.284;7.238;2023-02-03T08:56:22;100092.47;;;6.46;100.00
16431;BME280;8325;49.284;7.238;2023-02-03T09:00:36;100077.63;;;6.48;100.00
16431;BME280;8325;49.284;7.238;2023-02-03T09:04:48;100094.84;;;6.49;100.00
16431;BME280;8325;49.284;7.238;2023-02-03T09:09:02;100109.94;;;6.44;100.00
16431;BME280;8325;49.284;7.238;2023-02-03T09:13:13;100100.66;;;6.53;100.00
16431;BME280;8325;49.284;7.238;2023-02-03T09:17:25;100116.00;;;6.56;100.00
16431;BME280;8325;49.284;7.238;2023-02-03T09:21:37;100114.94;;;6.58;100.00
16431;BME280;8325;49.284;7.238;2023-02-03T09:25:55;100120.75;;;6.62;100.00
16431;BME280;8325;49.284;7.238;2023-02-03T09:30:07;100094.19;;;6.58;100.00
16431;BME280;8325;49.284;7.238;2023-02-03T09:34:20;100091.50;;;6.60;100.00
16431;BME280;8325;49.284;7.238;2023-02-03T09:38:33;100087.22;;;6.59;100.00
16431;BME280;8325;49.284;7.238;2023-02-03T09:47:27;100097.00;;;6.55;100.00
16431;BME280;8325;49.284;7.238;2023-02-03T09:52:02;100106.03;;;6.62;100.00
16431;BME280;8325;49.284;7.238;2023-02-03T09:56:30;100097.06;;;6.66;100.00
16431;BME280;8325;49.284;7.238;2023-02-03T10:04:57;100087.19;;;6.72;100.00
16431;BME280;8325;49.284;7.238;2023-02-03T10:17:59;100093.84;;;6.87;100.00
16431;BME280;8325;49.284;7.238;2023-02-03T10:22:19;100085.84;;;6.90;100.00
16431;BME280;8325;49.284;7.238;2023-02-03T10:26:32;100085.84;;;6.90;100.00
16431;BME280;8325;49.284;7.238;2023-02-03T10:31:12;100094.22;;;6.94;100.00
16431;BME280;8325;49.284;7.238;2023-02-03T10:35:33;100081.09;;;6.84;100.00
16431;BME280;8325;49.284;7.238;2023-02-03T10:39:48;100078.72;;;6.81;100.00
16431;BME280;8325;49.284;7.238;2023-02-03T10:44:06;100099.28;;;6.84;100.00
16431;BME280;8325;49.284;7.238;2023-02-03T10:48:19;100076.81;;;6.83;100.00
16431;BME280;8325;49.284;7.238;2023-02-03T10:52:33;100072.56;;;6.82;100.00
16431;BME280;8325;49.284;7.238;2023-02-03T10:56:45;100065.28;;;6.87;100.00
16431;BME280;8325;49.284;7.238;2023-02-03T11:01:14;100056.41;;;6.89;100.00
16431;BME280;8325;49.284;7.238;2023-02-03T11:05:26;100061.47;;;6.80;100.00
16431;BME280;8325;49.284;7.238;2023-02-03T11:09:41;100052.75;;;6.81;100.00
16431;BME280;8325;49.284;7.238;2023-02-03T11:22:48;100045.88;;;6.80;100.00
16431;BME280;8325;49.284;7.238;2023-02-03T11:27:04;100022.50;;;6.80;100.00
16431;BME280;8325;49.284;7.238;2023-02-03T11:31:20;100040.66;;;6.68;100.00
16431;BME280;8325;49.284;7.238;2023-02-03T11:35:33;100039.72;;;6.69;100.00
16431;BME280;8325;49.284;7.238;2023-02-03T11:39:48;100036.28;;;6.69;100.00
16431;BME280;8325;49.284;7.238;2023-02-03T11:44:09;100048.09;;;6.73;100.00
16431;BME280;8325;49.284;7.238;2023-02-03T11:48:41;100041.63;;;6.79;100.00
16431;BME280;8325;49.284;7.238;2023-02-03T11:57:32;100039.50;;;6.73;100.00
16431;BME280;8325;49.284;7.238;2023-02-03T12:11:50;100031.13;;;6.80;100.00
16431;BME280;8325;49.284;7.238;2023-02-03T12:26:12;100065.00;;;6.79;100.00
16431;BME280;8325;49.284;7.238;2023-02-03T12:30:31;100072.78;;;6.79;100.00
16431;BME280;8325;49.284;7.238;2023-02-03T12:34:47;100079.53;;;6.81;100.00
16431;BME280;8325;49.284;7.238;2023-02-03T12:43:43;100073.97;;;6.75;100.00
16431;BME280;8325;49.284;7.238;2023-02-03T12:48:03;100050.84;;;6.83;100.00
16431;BME280;8325;49.284;7.238;2023-02-03T12:52:29;100028.19;;;6.85;100.00
16431;BME280;8325;49.284;7.238;2023-02-03T12:56:43;100014.25;;;6.86;100.00
16431;BME280;8325;49.284;7.238;2023-02-03T13:01:03;100014.25;;;6.86;100.00
16431;BME280;8325;49.284;7.238;2023-02-03T13:05:22;100024.66;;;6.86;100.00
16431;BME280;8325;49.284;7.238;2023-02-03T13:09:55;100024.19;;;6.92;100.00
16431;BME280;8325;49.284;7.238;2023-02-03T13:14:33;100006.13;;;6.90;100.00
16431;BME280;8325;49.284;7.238;2023-02-03T13:18:52;99978.03;;;6.96;100.00
16431;BME280;8325;49.284;7.238;2023-02-03T13:23:06;99972.97;;;6.94;100.00
16431;BME280;8325;49.284;7.238;2023-02-03T13:27:42;99973.81;;;7.06;100.00
16431;BME280;8325;49.284;7.238;2023-02-03T13:41:46;99956.94;;;7.11;100.00
16431;BME280;8325;49.284;7.238;2023-02-03T13:46:01;99956.31;;;7.08;100.00
16431;BME280;8325;49.284;7.238;2023-02-03T13:50:24;99952.56;;;7.12;100.00
16431;BME280;8325;49.284;7.238;2023-02-03T13:54:42;99970.75;;;7.12;100.00
16431;BME280;8325;49.284;7.238;2023-02-03T13:59:19;99959.63;;;7.10;100.00
16431;BME280;8325;49.284;7.238;2023-02-03T14:03:43;99968.25;;;7.10;100.00
16431;BME280;8325;49.284;7.238;2023-02-03T14:07:55;99967.41;;;7.10;100.00
16431;BME280;8325;49.284;7.238;2023-02-03T14:12:30;99949.69;;;7.04;100.00
16431;BME280;8325;49.284;7.238;2023-02-03T14:16:51;99955.13;;;7.01;100.00
16431;BME280;8325;49.284;7.238;2023-02-03T14:21:11;99957.63;;;7.02;100.00
16431;BME280;8325;49.284;7.238;2023-02-03T14:25:25;99963.66;;;7.03;100.00
16431;BME280;8325;49.284;7.238;2023-02-03T14:29:38;99972.00;;;6.95;100.00
16431;BME280;8325;49.284;7.238;2023-02-03T14:33:54;99965.53;;;7.01;100.00
16431;BME280;8325;49.284;7.238;2023-02-03T14:38:12;99975.81;;;7.02;100.00
16431;BME280;8325;49.284;7.238;2023-02-03T14:51:38;99984.66;;;7.00;100.00
16431;BME280;8325;49.284;7.238;2023-02-03T14:56:11;99986.44;;;6.99;100.00
16431;BME280;8325;49.284;7.238;2023-02-03T15:00:28;99998.09;;;7.05;100.00
16431;BME280;8325;49.284;7.238;2023-02-03T15:04:42;99990.31;;;6.94;100.00
16431;BME280;8325;49.284;7.238;2023-02-03T15:08:56;99993.59;;;6.96;100.00
16431;BME280;8325;49.284;7.238;2023-02-03T15:17:35;100005.19;;;6.91;100.00
16431;BME280;8325;49.284;7.238;2023-02-03T15:21:48;100001.75;;;6.91;100.00
16431;BME280;8325;49.284;7.238;2023-02-03T15:26:02;99992.44;;;6.88;100.00
16431;BME280;8325;49.284;7.238;2023-02-03T15:34:47;100013.34;;;6.87;100.00
16431;BME280;8325;49.284;7.238;2023-02-03T15:39:09;100035.03;;;6.86;100.00
16431;BME280;8325;49.284;7.238;2023-02-03T15:47:46;100043.78;;;6.85;100.00
16431;BME280;8325;49.284;7.238;2023-02-03T15:52:07;100033.63;;;6.82;100.00
16431;BME280;8325;49.284;7.238;2023-02-03T15:56:39;100020.63;;;6.82;100.00
16431;BME280;8325;49.284;7.238;2023-02-03T16:00:55;100032.88;;;6.80;100.00
16431;BME280;8325;49.284;7.238;2023-02-03T16:05:23;100030.19;;;6.81;100.00
16431;BME280;8325;49.284;7.238;2023-02-03T16:09:40;100016.38;;;6.81;100.00
16431;BME280;8325;49.284;7.238;2023-02-03T16:13:53;100019.44;;;6.86;100.00
16431;BME280;8325;49.284;7.238;2023-02-03T16:18:15;100016.38;;;6.81;100.00
16431;BME280;8325;49.284;7.238;2023-02-03T16:22:29;100045.41;;;6.86;100.00
16431;BME280;8325;49.284;7.238;2023-02-03T16:26:42;100049.56;;;6.88;100.00
16431;BME280;8325;49.284;7.238;2023-02-03T16:30:57;100059.34;;;6.85;100.00
16431;BME280;8325;49.284;7.238;2023-02-03T16:35:28;100062.06;;;6.83;100.00
16431;BME280;8325;49.284;7.238;2023-02-03T16:39:58;100055.59;;;6.89;100.00
16431;BME280;8325;49.284;7.238;2023-02-03T16:44:28;100064.34;;;6.88;100.00
16431;BME280;8325;49.284;7.238;2023-02-03T16:48:58;100068.09;;;6.84;100.00
16431;BME280;8325;49.284;7.238;2023-02-03T16:53:30;100055.81;;;6.86;100.00
16431;BME280;8325;49.284;7.238;2023-02-03T16:57:42;100062.91;;;6.84;100.00
16431;BME280;8325;49.284;7.238;2023-02-03T17:01:54;100071.41;;;6.86;100.00
16431;BME280;8325;49.284;7.238;2023-02-03T17:06:10;100073.75;;;6.78;100.00
16431;BME280;8325;49.284;7.238;2023-02-03T17:10:22;100075.41;;;6.79;100.00
16431;BME280;8325;49.284;7.238;2023-02-03T17:14:34;100066.44;;;6.83;100.00
16431;BME280;8325;49.284;7.238;2023-02-03T17:18:46;100072.34;;;6.85;100.00
16431;BME280;8325;49.284;7.238;2023-02-03T17:22:58;100069.75;;;6.85;100.00
16431;BME280;8325;49.284;7.238;2023-02-03T17:27:09;100064.56;;;6.85;100.00
16431;BME280;8325;49.284;7.238;2023-02-03T17:31:21;100069.25;;;6.80;100.00
16431;BME280;8325;49.284;7.238;2023-02-03T17:35:32;100067.16;;;6.85;100.00
16431;BME280;8325;49.284;7.238;2023-02-03T17:39:44;100080.47;;;6.80;100.00
16431;BME280;8325;49.284;7.238;2023-02-03T17:44:13;100086.38;;;6.82;100.00
16431;BME280;8325;49.284;7.238;2023-02-03T17:48:42;100097.81;;;6.80;100.00
16431;BME280;8325;49.284;7.238;2023-02-03T17:53:12;100105.38;;;6.83;100.00
16431;BME280;8325;49.284;7.238;2023-02-03T17:57:25;100108.50;;;6.88;100.00
16431;BME280;8325;49.284;7.238;2023-02-03T18:01:37;100107.53;;;6.89;100.00
16431;BME280;8325;49.284;7.238;2023-02-03T18:05:50;100101.28;;;6.91;100.00
16431;BME280;8325;49.284;7.238;2023-02-03T18:10:01;100094.09;;;6.95;100.00
16431;BME280;8325;49.284;7.238;2023-02-03T18:14:14;100093.19;;;6.96;100.00
16431;BME280;8325;49.284;7.238;2023-02-03T18:18:27;100111.59;;;6.93;100.00
16431;BME280;8325;49.284;7.238;2023-02-03T18:22:39;100122.44;;;6.98;100.00
16431;BME280;8325;49.284;7.238;2023-02-03T18:26:51;100119.75;;;7.00;100.00
16431;BME280;8325;49.284;7.238;2023-02-03T18:31:12;100109.13;;;7.03;100.00
16431;BME280;8325;49.284;7.238;2023-02-03T18:35:24;100117.63;;;7.05;100.00
16431;BME280;8325;49.284;7.238;2023-02-03T18:39:35;100121.19;;;7.04;100.00
16431;BME280;8325;49.284;7.238;2023-02-03T18:43:47;100118.56;;;7.04;100.00
16431;BME280;8325;49.284;7.238;2023-02-03T18:47:59;100110.69;;;7.05;100.00
16431;BME280;8325;49.284;7.238;2023-02-03T18:52:11;100108.31;;;7.02;100.00
16431;BME280;8325;49.284;7.238;2023-02-03T18:56:27;100109.72;;;7.06;100.00
16431;BME280;8325;49.284;7.238;2023-02-03T19:00:46;100114.72;;;7.09;100.00
16431;BME280;8325;49.284;7.238;2023-02-03T19:04:57;100121.53;;;7.10;100.00
16431;BME280;8325;49.284;7.238;2023-02-03T19:09:10;100126.75;;;7.10;100.00
16431;BME280;8325;49.284;7.238;2023-02-03T19:13:22;100136.31;;;7.10;100.00
16431;BME280;8325;49.284;7.238;2023-02-03T19:17:34;100130.88;;;7.13;100.00
16431;BME280;8325;49.284;7.238;2023-02-03T19:21:46;100138.59;;;7.14;100.00
16431;BME280;8325;49.284;7.238;2023-02-03T19:25:59;100136.81;;;7.15;100.00
16431;BME280;8325;49.284;7.238;2023-02-03T19:30:11;100149.44;;;7.20;100.00
16431;BME280;8325;49.284;7.238;2023-02-03T19:34:22;100153.50;;;7.24;100.00
16431;BME280;8325;49.284;7.238;2023-02-03T19:38:34;100152.78;;;7.22;100.00
16431;BME280;8325;49.284;7.238;2023-02-03T19:42:45;100172.03;;;7.19;100.00
16431;BME280;8325;49.284;7.238;2023-02-03T19:46:57;100175.56;;;7.18;100.00
16431;BME280;8325;49.284;7.238;2023-02-03T19:51:09;100180.78;;;7.18;100.00
16431;BME280;8325;49.284;7.238;2023-02-03T19:55:22;100187.28;;;7.24;100.00
16431;BME280;8325;49.284;7.238;2023-02-03T19:59:33;100183.84;;;7.23;100.00
16431;BME280;8325;49.284;7.238;2023-02-03T20:03:45;100182.19;;;7.22;100.00
16431;BME280;8325;49.284;7.238;2023-02-03T20:07:57;100187.06;;;7.27;100.00
16431;BME280;8325;49.284;7.238;2023-02-03T20:12:10;100183.38;;;7.29;100.00
16431;BME280;8325;49.284;7.238;2023-02-03T20:16:21;100184.25;;;7.30;100.00
16431;BME280;8325;49.284;7.238;2023-02-03T20:20:34;100196.38;;;7.29;100.00
16431;BME280;8325;49.284;7.238;2023-02-03T20:24:45;100203.25;;;7.30;100.00
16431;BME280;8325;49.284;7.238;2023-02-03T20:28:57;100210.00;;;7.33;100.00
16431;BME280;8325;49.284;7.238;2023-02-03T20:33:08;100208.94;;;7.35;100.00
16431;BME280;8325;49.284;7.238;2023-02-03T20:37:20;100205.41;;;7.36;100.00
16431;BME280;8325;49.284;7.238;2023-02-03T20:41:31;100199.38;;;7.36;100.00
16431;BME280;8325;49.284;7.238;2023-02-03T20:45:43;100204.81;;;7.33;100.00
16431;BME280;8325;49.284;7.238;2023-02-03T20:49:55;100198.53;;;7.35;100.00
16431;BME280;8325;49.284;7.238;2023-02-03T20:54:24;100205.19;;;7.40;100.00
16431;BME280;8325;49.284;7.238;2023-02-03T20:58:36;100209.56;;;7.39;100.00
16431;BME280;8325;49.284;7.238;2023-02-03T21:02:48;100200.81;;;7.40;100.00
16431;BME280;8325;49.284;7.238;2023-02-03T21:07:18;100204.59;;;7.36;100.00
16431;BME280;8325;49.284;7.238;2023-02-03T21:11:30;100194.19;;;7.36;100.00
16431;BME280;8325;49.284;7.238;2023-02-03T21:15:41;100189.00;;;7.36;100.00
16431;BME280;8325;49.284;7.238;2023-02-03T21:19:54;100193.09;;;7.38;100.00
16431;BME280;8325;49.284;7.238;2023-02-03T21:24:25;100189.00;;;7.36;100.00
16431;BME280;8325;49.284;7.238;2023-02-03T21:28:37;100195.59;;;7.40;100.00
16431;BME280;8325;49.284;7.238;2023-02-03T21:32:48;100200.91;;;7.38;100.00
16431;BME280;8325;49.284;7.238;2023-02-03T21:37:15;100192.28;;;7.38;100.00
16431;BME280;8325;49.284;7.238;2023-02-03T21:41:37;100188.63;;;7.41;100.00
16431;BME280;8325;49.284;7.238;2023-02-03T21:45:49;100181.78;;;7.40;100.00
16431;BME280;8325;49.284;7.238;2023-02-03T21:50:01;100189.34;;;7.43;100.00
16431;BME280;8325;49.284;7.238;2023-02-03T21:54:21;100178.22;;;7.41;100.00
16431;BME280;8325;49.284;7.238;2023-02-03T21:58:35;100187.09;;;7.38;100.00
16431;BME280;8325;49.284;7.238;2023-02-03T22:02:55;100190.41;;;7.40;100.00
16431;BME280;8325;49.284;7.238;2023-02-03T22:07:13;100200.81;;;7.40;100.00
16431;BME280;8325;49.284;7.238;2023-02-03T22:11:27;100211.31;;;7.38;100.00
16431;BME280;8325;49.284;7.238;2023-02-03T22:15:40;100216.41;;;7.40;100.00
16431;BME280;8325;49.284;7.238;2023-02-03T22:19:52;100213.09;;;7.38;100.00
16431;BME280;8325;49.284;7.238;2023-02-03T22:24:05;100220.88;;;7.38;100.00
16431;BME280;8325;49.284;7.238;2023-02-03T22:28:16;100224.31;;;7.38;100.00
